Time;durP1;ratioP1;P1;durP2;ratioP2;P2;SDS_P1;SDS_P2;PMS_P1;PMS_P2;Temp;Humidity;BMP_temperature;BMP_pressure;BME280_temperature;BME280_humidity;BME280_pressure;Samples;Min_cycle;Max_cycle;Signal;HPM_P1;HPM_P2
2021/05/05 00:00:43;;;;;;;3.87;0.90;;;9.30;99.90;;;;;;5040997;28;20477;-88
2021/05/05 00:03:09;;;;;;;2.73;1.00;;;9.20;99.90;;;;;;5034413;28;20930;-88
2021/05/05 00:05:35;;;;;;;2.30;0.63;;;9.20;99.90;;;;;;5033821;28;20801;-89
2021/05/05 00:08:01;;;;;;;1.27;0.80;;;9.20;99.90;;;;;;5034474;28;20965;-88
2021/05/05 00:10:28;;;;;;;1.53;0.93;;;9.10;99.90;;;;;;5035165;28;20453;-88
2021/05/05 00:12:55;;;;;;;2.90;0.90;;;9.00;99.90;;;;;;5034552;28;20433;-88
2021/05/05 00:17:55;;;;;;;1.23;0.90;;;9.00;99.90;;;;;;5033971;28;20456;-90
2021/05/05 00:20:22;;;;;;;4.43;1.07;;;8.90;99.90;;;;;;5034841;28;20429;-90
2021/05/05 00:22:49;;;;;;;2.10;0.80;;;8.90;99.90;;;;;;5044124;28;20450;-89
2021/05/05 00:25:15;;;;;;;2.50;0.70;;;8.90;99.90;;;;;;5050970;28;20444;-90
2021/05/05 00:27:42;;;;;;;2.80;0.97;;;8.90;99.90;;;;;;5053533;28;20441;-89
2021/05/05 00:30:16;;;;;;;1.67;0.90;;;8.90;99.90;;;;;;5044089;28;20429;-89
2021/05/05 00:32:43;;;;;;;2.20;0.90;;;8.90;99.90;;;;;;5036498;28;20448;-89
2021/05/05 00:35:15;;;;;;;3.00;0.77;;;8.80;99.90;;;;;;5034903;28;20472;-90
2021/05/05 00:37:42;;;;;;;2.57;0.90;;;8.80;99.90;;;;;;5034585;28;20508;-90
2021/05/05 00:40:11;;;;;;;1.63;0.90;;;8.90;99.90;;;;;;5034335;28;20477;-89
2021/05/05 00:42:38;;;;;;;3.27;0.90;;;8.90;99.90;;;;;;5034182;28;20445;-90
2021/05/05 00:45:08;;;;;;;2.80;1.17;;;8.90;99.90;;;;;;5034075;28;20976;-90
2021/05/05 00:47:35;;;;;;;2.10;0.77;;;8.90;99.90;;;;;;5035137;28;20481;-90
2021/05/05 00:50:02;;;;;;;2.80;0.97;;;8.90;99.90;;;;;;5034065;28;20445;-90
2021/05/05 00:52:28;;;;;;;0.90;0.63;;;8.90;99.90;;;;;;5033953;28;20463;-90
2021/05/05 00:54:54;;;;;;;1.40;1.10;;;8.90;99.90;;;;;;5033944;28;20454;-90
2021/05/05 00:57:23;;;;;;;1.10;1.00;;;8.80;99.90;;;;;;5033370;28;20557;-90
2021/05/05 00:59:49;;;;;;;1.97;0.80;;;8.90;99.90;;;;;;5037399;28;20479;-90
2021/05/05 01:02:16;;;;;;;1.60;0.80;;;8.80;99.90;;;;;;5037355;28;20926;-90
2021/05/05 01:04:46;;;;;;;0.80;0.70;;;8.80;99.90;;;;;;5037207;28;21015;-90
2021/05/05 01:07:12;;;;;;;1.90;1.13;;;8.80;99.90;;;;;;5037146;28;20453;-90
2021/05/05 01:09:44;;;;;;;1.83;0.80;;;8.70;99.90;;;;;;5036958;28;20486;-89
2021/05/05 01:12:11;;;;;;;2.57;1.23;;;8.70;99.90;;;;;;5037013;28;20441;-90
2021/05/05 01:14:37;;;;;;;2.43;2.23;;;8.70;99.90;;;;;;5054166;28;20437;-90
2021/05/05 01:17:06;;;;;;;2.63;1.60;;;8.70;99.90;;;;;;5039459;28;20505;-89
2021/05/05 01:19:33;;;;;;;3.10;0.90;;;8.70;99.90;;;;;;5037332;28;20473;-90
2021/05/05 01:22:01;;;;;;;1.00;0.90;;;8.70;99.90;;;;;;5037623;28;20449;-90
2021/05/05 01:24:27;;;;;;;2.53;1.37;;;8.70;99.90;;;;;;5046664;28;20508;-88
2021/05/05 01:26:55;;;;;;;3.80;0.80;;;8.70;99.90;;;;;;5059002;28;20472;-90
2021/05/05 01:29:22;;;;;;;1.20;0.90;;;8.70;99.90;;;;;;5046092;28;20445;-90
2021/05/05 01:31:48;;;;;;;1.77;1.10;;;8.70;99.90;;;;;;5038467;28;20491;-90
2021/05/05 01:34:15;;;;;;;2.40;0.90;;;8.70;99.90;;;;;;5037517;28;20445;-90
2021/05/05 01:36:45;;;;;;;2.07;1.07;;;8.70;99.90;;;;;;5037317;28;20473;-90
2021/05/05 01:39:20;;;;;;;2.50;1.30;;;8.70;99.90;;;;;;5058834;28;20465;-89
2021/05/05 01:41:51;;;;;;;1.43;0.97;;;8.60;99.90;;;;;;5060335;28;20436;-89
2021/05/05 01:44:17;;;;;;;2.97;1.07;;;8.70;99.90;;;;;;5048990;28;20476;-89
2021/05/05 01:46:49;;;;;;;3.47;1.00;;;8.70;99.90;;;;;;5058215;28;20520;-89
2021/05/05 01:49:23;;;;;;;3.47;1.10;;;8.70;99.90;;;;;;5046796;28;20487;-89
2021/05/05 01:51:49;;;;;;;2.70;1.30;;;8.60;99.90;;;;;;5039828;28;20503;-89
2021/05/05 01:54:18;;;;;;;3.93;1.20;;;8.60;99.90;;;;;;5044457;28;20437;-90
2021/05/05 01:56:45;;;;;;;2.93;0.97;;;8.60;99.90;;;;;;5047118;28;20456;-90
2021/05/05 01:59:11;;;;;;;7.00;3.33;;;8.60;99.90;;;;;;5050572;28;20559;-89
2021/05/05 02:01:38;;;;;;;1.63;0.80;;;8.60;99.90;;;;;;5053612;28;20509;-89
2021/05/05 02:04:05;;;;;;;5.43;1.30;;;8.60;99.90;;;;;;5055841;28;20457;-89
2021/05/05 02:06:35;;;;;;;3.70;1.67;;;8.60;99.90;;;;;;5050280;28;20464;-89
2021/05/05 02:09:02;;;;;;;2.50;1.23;;;8.50;99.90;;;;;;5039614;28;20447;-90
2021/05/05 02:11:29;;;;;;;1.67;1.20;;;8.60;99.90;;;;;;5040568;28;20658;-90
2021/05/05 02:13:55;;;;;;;3.20;1.10;;;8.50;99.90;;;;;;5048966;28;20449;-89
2021/05/05 02:16:21;;;;;;;2.20;1.20;;;8.60;99.90;;;;;;5058204;28;20485;-89
2021/05/05 02:18:48;;;;;;;2.83;1.70;;;8.50;99.90;;;;;;5059304;28;20485;-89
2021/05/05 02:21:14;;;;;;;2.90;1.50;;;8.50;99.90;;;;;;5059798;28;20457;-88
2021/05/05 02:23:41;;;;;;;3.23;1.53;;;8.50;99.90;;;;;;5057376;28;20445;-88
2021/05/05 02:26:07;;;;;;;2.60;1.20;;;8.40;99.90;;;;;;5058943;28;20465;-88
2021/05/05 02:28:34;;;;;;;2.67;1.37;;;8.50;99.90;;;;;;5050804;28;20465;-89
2021/05/05 02:31:07;;;;;;;2.23;1.30;;;8.50;99.90;;;;;;5040236;28;20441;-89
2021/05/05 02:33:38;;;;;;;2.20;1.20;;;8.40;99.90;;;;;;5039322;28;20461;-90
2021/05/05 02:36:05;;;;;;;3.40;0.80;;;8.40;99.90;;;;;;5038275;28;20838;-89
2021/05/05 02:38:38;;;;;;;2.87;1.10;;;8.40;99.90;;;;;;5051657;28;20476;-89
2021/05/05 02:41:04;;;;;;;2.20;1.10;;;8.40;99.90;;;;;;5040838;28;20840;-90
2021/05/05 02:43:34;;;;;;;1.30;0.97;;;8.40;99.90;;;;;;5037070;28;20510;-89
2021/05/05 02:46:01;;;;;;;3.23;1.10;;;8.50;99.90;;;;;;5043320;28;20492;-89
2021/05/05 02:48:33;;;;;;;2.37;0.90;;;8.50;99.90;;;;;;5048543;28;20453;-88
2021/05/05 02:51:00;;;;;;;1.23;0.70;;;8.50;99.90;;;;;;5037993;28;20449;-89
2021/05/05 02:53:26;;;;;;;5.30;1.33;;;8.50;99.90;;;;;;5042458;28;20461;-90
2021/05/05 02:55:52;;;;;;;2.13;1.10;;;8.50;99.90;;;;;;5043042;28;20513;-90
2021/05/05 02:58:19;;;;;;;3.53;1.00;;;8.40;99.90;;;;;;5037184;28;20453;-89
2021/05/05 03:00:45;;;;;;;2.00;1.03;;;8.50;99.90;;;;;;5035092;28;20446;-89
2021/05/05 03:03:17;;;;;;;2.47;1.40;;;8.40;99.90;;;;;;5035226;28;20434;-89
2021/05/05 03:05:43;;;;;;;4.90;1.10;;;8.40;99.90;;;;;;5039756;28;20536;-89
2021/05/05 03:08:10;;;;;;;2.10;0.80;;;8.40;99.90;;;;;;5035633;28;20441;-89
2021/05/05 03:10:36;;;;;;;2.50;1.03;;;8.30;99.90;;;;;;5034799;28;20461;-89
2021/05/05 03:13:03;;;;;;;3.77;1.37;;;8.30;99.90;;;;;;5034838;28;20449;-89
2021/05/05 03:15:29;;;;;;;3.33;1.50;;;8.20;99.90;;;;;;5034340;28;20472;-90
2021/05/05 03:17:55;;;;;;;4.37;1.20;;;8.30;99.90;;;;;;5034874;28;20448;-90
2021/05/05 03:20:22;;;;;;;2.83;1.30;;;8.30;99.90;;;;;;5034404;28;20487;-89
2021/05/05 03:22:49;;;;;;;3.50;1.57;;;8.30;99.90;;;;;;5032130;28;20449;-89
2021/05/05 03:25:16;;;;;;;2.03;1.00;;;8.20;99.90;;;;;;5034447;28;20453;-89
2021/05/05 03:27:43;;;;;;;2.70;1.23;;;8.20;99.90;;;;;;5030242;28;20454;-89
2021/05/05 03:30:10;;;;;;;5.53;1.40;;;8.20;99.90;;;;;;5034281;28;20433;-89
2021/05/05 03:32:37;;;;;;;2.90;1.17;;;8.20;99.90;;;;;;5033221;28;20433;-89
2021/05/05 03:35:04;;;;;;;3.00;1.27;;;8.20;99.90;;;;;;5033864;28;20791;-89
2021/05/05 03:37:31;;;;;;;4.00;1.10;;;8.20;99.90;;;;;;5030520;28;20480;-90
2021/05/05 03:39:58;;;;;;;4.27;1.47;;;8.20;99.90;;;;;;5039377;28;20488;-89
2021/05/05 03:42:24;;;;;;;4.70;1.43;;;8.20;99.90;;;;;;5055612;28;20433;-89
2021/05/05 03:44:50;;;;;;;2.03;1.10;;;8.20;99.90;;;;;;5039384;28;20473;-90
2021/05/05 03:47:17;;;;;;;1.37;1.20;;;8.20;99.90;;;;;;5037010;28;20462;-90
2021/05/05 03:49:43;;;;;;;2.60;1.30;;;8.20;99.90;;;;;;5036841;28;20450;-90
2021/05/05 03:52:10;;;;;;;2.20;1.33;;;8.20;99.90;;;;;;5050303;28;21021;-90
2021/05/05 03:54:37;;;;;;;3.40;1.43;;;8.20;99.90;;;;;;5055936;28;20436;-89
2021/05/05 03:57:03;;;;;;;5.23;1.37;;;8.20;99.90;;;;;;5054730;28;20522;-90
2021/05/05 03:59:29;;;;;;;2.00;0.83;;;8.20;99.90;;;;;;5056444;28;20467;-88
2021/05/05 04:01:56;;;;;;;5.23;1.10;;;8.20;99.90;;;;;;5057317;28;20433;-90
2021/05/05 04:04:22;;;;;;;2.93;1.57;;;8.20;99.90;;;;;;5056388;28;20429;-90
2021/05/05 04:06:51;;;;;;;1.50;1.40;;;8.10;99.90;;;;;;5057650;28;20484;-90
2021/05/05 04:09:24;;;;;;;3.53;1.37;;;8.20;99.90;;;;;;5054495;28;20457;-90
2021/05/05 04:11:51;;;;;;;4.80;1.77;;;8.10;99.90;;;;;;5051445;28;20463;-90
2021/05/05 04:14:20;;;;;;;2.73;1.50;;;8.20;99.90;;;;;;5041284;28;20421;-90
2021/05/05 04:16:47;;;;;;;1.53;1.20;;;8.20;99.90;;;;;;5037814;28;20481;-90
2021/05/05 04:19:14;;;;;;;3.80;1.37;;;8.20;99.90;;;;;;5050184;28;20537;-90
2021/05/05 04:21:43;;;;;;;2.17;1.10;;;8.20;99.90;;;;;;5041753;28;20517;-91
2021/05/05 04:24:13;;;;;;;2.70;1.27;;;8.20;99.90;;;;;;5037037;28;20533;-91
2021/05/05 04:26:39;;;;;;;1.37;0.90;;;8.20;99.90;;;;;;5036375;28;20465;-91
2021/05/05 04:29:08;;;;;;;2.07;1.77;;;8.20;99.90;;;;;;5040843;28;20428;-90
2021/05/05 04:31:35;;;;;;;1.33;0.90;;;8.20;99.90;;;;;;5042471;28;20480;-90
2021/05/05 04:34:01;;;;;;;3.90;1.47;;;8.10;99.90;;;;;;5056141;28;20425;-89
2021/05/05 04:36:28;;;;;;;1.73;1.17;;;8.20;99.90;;;;;;5056299;28;20523;-90
2021/05/05 04:38:54;;;;;;;2.27;1.50;;;8.20;99.90;;;;;;5050205;28;20548;-90
2021/05/05 04:41:21;;;;;;;1.60;1.40;;;8.20;99.90;;;;;;5046400;28;20530;-90
2021/05/05 04:43:47;;;;;;;1.07;0.80;;;8.20;99.90;;;;;;5047131;28;20548;-90
2021/05/05 04:46:14;;;;;;;1.83;1.27;;;8.20;99.90;;;;;;5043045;28;20514;-91
2021/05/05 04:48:41;;;;;;;3.30;1.50;;;8.10;99.90;;;;;;5038342;28;20445;-88
2021/05/05 04:51:07;;;;;;;1.37;0.83;;;8.10;99.90;;;;;;5038632;28;21024;-90
2021/05/05 04:53:34;;;;;;;2.27;1.03;;;8.10;99.90;;;;;;5052340;28;20463;-88
2021/05/05 04:56:00;;;;;;;1.80;1.00;;;8.10;99.90;;;;;;5041686;28;20465;-89
2021/05/05 04:58:27;;;;;;;2.83;1.10;;;8.10;99.90;;;;;;5039122;28;20449;-89
2021/05/05 05:00:53;;;;;;;1.90;1.47;;;8.10;99.90;;;;;;5042734;28;20445;-89
2021/05/05 05:03:20;;;;;;;3.30;1.50;;;8.10;99.90;;;;;;5060996;28;20440;-88
2021/05/05 05:05:49;;;;;;;1.10;0.97;;;8.10;99.90;;;;;;5058416;28;20560;-89
2021/05/05 05:08:15;;;;;;;2.93;1.53;;;8.10;99.90;;;;;;5052579;28;20512;-89
2021/05/05 05:10:42;;;;;;;1.30;0.80;;;8.10;99.90;;;;;;5060665;28;20456;-89
2021/05/05 05:13:09;;;;;;;1.87;0.80;;;8.10;99.90;;;;;;5041637;28;21019;-89
2021/05/05 05:15:35;;;;;;;1.57;0.70;;;8.10;99.90;;;;;;5042860;28;20444;-90
2021/05/05 05:18:02;;;;;;;1.40;0.90;;;8.10;99.90;;;;;;5041769;28;20453;-90
2021/05/05 05:20:29;;;;;;;1.33;1.23;;;8.10;99.90;;;;;;5041810;28;20583;-90
2021/05/05 05:22:56;;;;;;;1.00;0.80;;;8.10;99.90;;;;;;5041503;28;20445;-89
2021/05/05 05:25:24;;;;;;;5.00;1.50;;;8.10;99.90;;;;;;5040329;28;20448;-89
2021/05/05 05:27:51;;;;;;;2.90;0.83;;;8.00;99.90;;;;;;5042742;28;20450;-88
2021/05/05 05:30:19;;;;;;;1.23;0.77;;;8.10;99.90;;;;;;5037812;28;20449;-88
2021/05/05 05:32:45;;;;;;;1.27;0.60;;;8.10;99.90;;;;;;5039903;28;20449;-88
2021/05/05 05:35:12;;;;;;;0.80;0.70;;;8.10;99.90;;;;;;5038252;28;20449;-89
2021/05/05 05:37:39;;;;;;;1.63;0.80;;;8.10;99.90;;;;;;5045913;28;20485;-88
2021/05/05 05:40:08;;;;;;;1.57;0.70;;;8.10;99.90;;;;;;5059105;28;20472;-89
2021/05/05 05:42:34;;;;;;;1.67;0.80;;;8.20;99.90;;;;;;5045863;28;20446;-91
2021/05/05 05:45:01;;;;;;;1.50;1.20;;;8.30;99.90;;;;;;5040907;28;20497;-90
2021/05/05 05:47:27;;;;;;;1.40;1.10;;;8.50;99.90;;;;;;5038970;28;20496;-89
2021/05/05 05:49:54;;;;;;;1.90;0.90;;;8.60;99.90;;;;;;5043061;28;20445;-89
2021/05/05 05:52:21;;;;;;;1.77;0.97;;;8.70;99.90;;;;;;5055463;28;20461;-90
2021/05/05 05:54:48;;;;;;;1.70;1.40;;;8.70;99.90;;;;;;5050754;28;21027;-90
2021/05/05 05:57:23;;;;;;;2.80;1.63;;;8.70;99.90;;;;;;5040047;28;21076;-89
2021/05/05 06:03:32;;;;;;;1.57;1.33;;;8.60;99.90;;;;;;5024450;28;20472;-90
2021/05/05 06:06:40;;;;;;;3.33;1.27;;;8.70;99.90;;;;;;5038383;28;20488;-90
2021/05/05 06:15:49;;;;;;;2.53;1.57;;;9.10;99.90;;;;;;4985853;22;20544;-85
2021/05/05 06:18:15;;;;;;;4.40;1.60;;;9.20;99.90;;;;;;5053118;28;20456;-86
2021/05/05 06:20:42;;;;;;;4.13;2.10;;;9.30;99.90;;;;;;5055667;28;20484;-86
2021/05/05 06:23:08;;;;;;;3.43;1.50;;;9.40;99.90;;;;;;5055992;28;20445;-86
2021/05/05 06:25:34;;;;;;;2.63;1.20;;;9.50;99.90;;;;;;5063205;28;20448;-85
2021/05/05 06:28:02;;;;;;;3.10;1.30;;;9.70;99.90;;;;;;5075359;28;20428;-85
2021/05/05 06:30:28;;;;;;;2.90;1.80;;;9.80;99.90;;;;;;5067432;28;20524;-86
2021/05/05 06:32:54;;;;;;;1.97;1.60;;;10.00;99.90;;;;;;5057478;28;20449;-85
2021/05/05 06:35:20;;;;;;;2.30;1.23;;;10.20;99.90;;;;;;5056283;28;20456;-84
2021/05/05 06:37:47;;;;;;;5.77;1.87;;;10.80;99.90;;;;;;5063057;28;20469;-86
2021/05/05 06:40:15;;;;;;;2.97;1.50;;;11.30;99.90;;;;;;5056821;28;20476;-86
2021/05/05 06:42:42;;;;;;;3.30;1.83;;;11.20;99.90;;;;;;5059856;28;20472;-85
2021/05/05 06:45:10;;;;;;;5.63;1.50;;;11.00;99.10;;;;;;5057009;28;20478;-86
2021/05/05 06:47:36;;;;;;;2.73;1.53;;;10.60;99.30;;;;;;5060863;28;20468;-86
2021/05/05 06:50:04;;;;;;;4.90;1.97;;;10.50;99.90;;;;;;5061431;28;20441;-84
2021/05/05 06:52:30;;;;;;;7.23;1.70;;;10.30;99.90;;;;;;5077669;28;20432;-85
2021/05/05 06:54:56;;;;;;;2.50;1.40;;;10.30;99.90;;;;;;5071578;28;20496;-86
2021/05/05 06:57:23;;;;;;;4.07;2.27;;;10.40;99.90;;;;;;5068475;28;20472;-86
2021/05/05 06:59:49;;;;;;;2.97;1.50;;;10.70;99.90;;;;;;5056077;28;20484;-85
2021/05/05 07:02:16;;;;;;;3.70;1.10;;;10.70;99.90;;;;;;5055990;28;20523;-86
2021/05/05 07:04:42;;;;;;;4.23;1.50;;;11.00;99.90;;;;;;5055196;28;20857;-87
2021/05/05 07:07:08;;;;;;;6.10;2.43;;;11.10;98.50;;;;;;5058150;28;20479;-85
2021/05/05 07:09:35;;;;;;;5.47;1.80;;;11.40;99.00;;;;;;5056200;28;20448;-86
2021/05/05 07:12:02;;;;;;;4.67;3.40;;;11.40;98.50;;;;;;5073447;28;20482;-85
2021/05/05 07:14:29;;;;;;;2.90;1.70;;;10.90;98.20;;;;;;5077552;28;20412;-85
2021/05/05 07:16:55;;;;;;;5.43;1.83;;;10.80;99.00;;;;;;5076037;28;20460;-86
2021/05/05 07:19:22;;;;;;;4.90;1.90;;;10.80;98.90;;;;;;5072270;28;20478;-86
2021/05/05 07:21:48;;;;;;;5.30;1.80;;;10.80;98.60;;;;;;5058472;28;20432;-85
2021/05/05 07:24:14;;;;;;;8.00;2.50;;;10.80;98.20;;;;;;5060101;28;20449;-85
2021/05/05 07:26:41;;;;;;;9.50;2.23;;;10.90;98.50;;;;;;5068183;28;20428;-86
2021/05/05 07:29:07;;;;;;;5.80;2.40;;;11.00;97.60;;;;;;5070971;28;20441;-86
2021/05/05 07:31:33;;;;;;;2.60;1.70;;;11.00;96.20;;;;;;5056455;28;20570;-85
2021/05/05 07:34:00;;;;;;;3.57;1.50;;;10.90;95.70;;;;;;5055428;28;20454;-86
2021/05/05 07:36:28;;;;;;;5.67;4.10;;;10.80;95.50;;;;;;5053774;28;20981;-86
2021/05/05 07:47:18;;;;;;;9.00;2.00;;;11.40;91.70;;;;;;5039730;28;20482;-87
2021/05/05 07:49:48;;;;;;;3.80;1.83;;;12.50;91.50;;;;;;5053801;28;20446;-87
2021/05/05 07:52:16;;;;;;;5.43;1.60;;;14.70;88.90;;;;;;5059454;28;20448;-85
2021/05/05 07:54:42;;;;;;;3.10;2.10;;;15.80;78.20;;;;;;5053553;28;20521;-87
2021/05/05 07:57:09;;;;;;;4.33;1.73;;;16.20;73.90;;;;;;5055400;28;20468;-83
2021/05/05 07:59:36;;;;;;;4.03;1.90;;;15.90;70.70;;;;;;5035204;28;20989;-86
2021/05/05 08:02:03;;;;;;;6.30;2.77;;;15.00;69.00;;;;;;5039836;28;20511;-86
2021/05/05 08:04:29;;;;;;;4.77;1.87;;;14.30;71.30;;;;;;5048856;28;20516;-85
2021/05/05 08:06:55;;;;;;;5.03;1.60;;;13.70;71.40;;;;;;5055938;28;20527;-86
2021/05/05 08:09:24;;;;;;;1.73;1.47;;;13.40;69.20;;;;;;5057793;28;20448;-86
2021/05/05 08:11:50;;;;;;;5.50;2.00;;;13.40;65.80;;;;;;5059604;28;20444;-86
2021/05/05 08:14:17;;;;;;;4.53;2.17;;;14.40;65.70;;;;;;5057798;28;20453;-86
2021/05/05 08:16:43;;;;;;;3.67;1.70;;;15.90;65.40;;;;;;5065112;28;20475;-85
2021/05/05 08:19:10;;;;;;;5.87;1.70;;;17.60;60.90;;;;;;5078183;28;20464;-86
2021/05/05 08:21:36;;;;;;;6.40;2.07;;;17.10;58.30;;;;;;5064847;28;20432;-87
2021/05/05 08:24:03;;;;;;;6.87;2.20;;;16.00;58.20;;;;;;5059499;28;20493;-86
2021/05/05 08:26:31;;;;;;;3.57;1.90;;;15.20;59.30;;;;;;5067486;28;20468;-86
2021/05/05 08:28:58;;;;;;;4.43;1.80;;;14.50;61.60;;;;;;5065307;28;20531;-87
2021/05/05 08:31:25;;;;;;;4.40;2.20;;;13.90;62.60;;;;;;5067503;28;20440;-86
2021/05/05 08:33:52;;;;;;;2.40;1.33;;;13.70;65.70;;;;;;5060735;28;20456;-86
2021/05/05 08:36:19;;;;;;;4.07;1.73;;;13.90;65.30;;;;;;5067071;28;20468;-86
2021/05/05 08:38:45;;;;;;;4.83;1.77;;;13.40;64.30;;;;;;5061963;28;20487;-86
2021/05/05 08:41:12;;;;;;;6.27;1.70;;;12.90;67.20;;;;;;5071349;28;20506;-85
2021/05/05 08:43:39;;;;;;;2.70;1.20;;;12.50;67.90;;;;;;5078052;28;20436;-86
2021/05/05 08:46:06;;;;;;;2.90;1.97;;;13.40;70.00;;;;;;5065451;28;20464;-86
2021/05/05 08:48:36;;;;;;;3.30;1.70;;;15.50;64.80;;;;;;5079706;28;20444;-86
2021/05/05 08:51:05;;;;;;;2.17;1.43;;;17.70;59.80;;;;;;5062876;28;20440;-85
2021/05/05 08:53:32;;;;;;;4.27;1.87;;;19.80;54.40;;;;;;5064853;28;20872;-84
2021/05/05 08:55:59;;;;;;;6.80;2.40;;;20.20;51.10;;;;;;5059836;28;20844;-85
2021/05/05 08:58:25;;;;;;;2.23;1.57;;;21.00;50.20;;;;;;5058682;28;20437;-85
2021/05/05 09:00:52;;;;;;;4.97;3.50;;;22.30;47.00;;;;;;5060218;28;20490;-86
2021/05/05 09:03:28;;;;;;;5.90;3.57;;;22.10;45.10;;;;;;5071902;28;20459;-85
2021/05/05 09:05:58;;;;;;;4.73;2.17;;;20.40;45.20;;;;;;5071403;28;20490;-84
2021/05/05 09:08:25;;;;;;;3.07;1.90;;;18.30;47.30;;;;;;5061653;28;20448;-84
2021/05/05 09:10:57;;;;;;;2.20;1.40;;;17.10;49.20;;;;;;5072701;28;20448;-85
2021/05/05 09:14:00;;;;;;;4.60;1.70;;;17.80;50.40;;;;;;5064475;28;20863;-86
2021/05/05 09:16:30;;;;;;;4.13;2.30;;;18.90;47.60;;;;;;5058359;28;20482;-85
2021/05/05 09:18:59;;;;;;;4.80;1.77;;;19.20;47.60;;;;;;5062677;28;20448;-85
2021/05/05 09:21:28;;;;;;;3.27;1.80;;;18.80;45.90;;;;;;5079668;28;20441;-84
2021/05/05 09:24:20;;;;;;;4.13;1.70;;;19.90;47.70;;;;;;5070063;28;20453;-86
2021/05/05 09:26:48;;;;;;;3.63;1.80;;;20.40;43.40;;;;;;5056191;28;20482;-85
2021/05/05 09:29:15;;;;;;;3.80;2.30;;;21.10;42.20;;;;;;5057800;28;20452;-84
2021/05/05 09:31:43;;;;;;;3.40;1.50;;;21.80;40.40;;;;;;5056792;28;20810;-85
2021/05/05 09:34:12;;;;;;;3.67;1.77;;;22.40;40.60;;;;;;5056012;28;20467;-85
2021/05/05 09:36:40;;;;;;;2.70;1.53;;;22.70;38.80;;;;;;5055787;28;20476;-85
2021/05/05 09:39:09;;;;;;;4.67;2.97;;;23.30;38.10;;;;;;5059302;28;20503;-85
2021/05/05 09:41:37;;;;;;;2.90;1.33;;;23.50;37.60;;;;;;5069399;28;20475;-84
2021/05/05 09:44:05;;;;;;;3.73;2.70;;;22.40;35.90;;;;;;5075741;28;20455;-85
2021/05/05 09:46:40;;;;;;;6.40;3.40;;;21.70;37.10;;;;;;5059879;28;21032;-87
2021/05/05 09:49:22;;;;;;;2.40;1.47;;;22.20;37.40;;;;;;5056255;28;20443;-86
2021/05/05 09:51:50;;;;;;;2.93;1.40;;;22.00;37.20;;;;;;5055828;28;20607;-86
2021/05/05 09:54:34;;;;;;;5.47;2.33;;;21.30;38.60;;;;;;5055673;28;20511;-87
2021/05/05 09:57:14;;;;;;;2.23;1.70;;;21.40;37.70;;;;;;5070282;28;20446;-86
2021/05/05 10:00:07;;;;;;;2.60;1.53;;;21.60;36.80;;;;;;5068822;28;20466;-87
2021/05/05 10:02:41;;;;;;;3.50;1.80;;;20.60;36.80;;;;;;5047295;28;20453;-87
2021/05/05 10:05:10;;;;;;;2.37;1.97;;;19.40;38.20;;;;;;5058264;28;20441;-87
2021/05/05 10:07:56;;;;;;;12.63;2.73;;;17.50;41.10;;;;;;5058981;28;20461;-86
2021/05/05 10:10:25;;;;;;;5.50;2.13;;;16.20;45.10;;;;;;5057242;28;20444;-86
2021/05/05 10:12:52;;;;;;;2.00;1.60;;;16.10;47.70;;;;;;5058306;28;20817;-86
2021/05/05 10:15:19;;;;;;;4.87;1.73;;;16.60;46.30;;;;;;5061016;28;20952;-86
2021/05/05 10:17:48;;;;;;;2.60;1.93;;;18.20;44.00;;;;;;5057241;28;20560;-86
2021/05/05 10:20:18;;;;;;;3.73;1.73;;;18.20;41.50;;;;;;5058581;28;20849;-86
2021/05/05 10:22:47;;;;;;;2.63;1.73;;;18.10;41.20;;;;;;5061644;28;20461;-85
2021/05/05 10:25:19;;;;;;;8.10;3.10;;;17.40;41.10;;;;;;5057301;28;20539;-86
2021/05/05 10:28:30;;;;;;;;;;;;;;;;;;;;;
2021/05/05 10:31:19;;;;;;;7.70;5.70;;;20.60;38.70;;;;;;5057811;28;20443;-86
2021/05/05 10:33:47;;;;;;;6.63;3.40;;;19.30;38.30;;;;;;5057587;28;20485;-86
2021/05/05 10:36:33;;;;;;;5.07;1.77;;;17.00;40.90;;;;;;5057618;28;20464;-86
2021/05/05 10:39:01;;;;;;;2.27;1.30;;;17.40;42.20;;;;;;5070104;28;20471;-86
2021/05/05 10:41:28;;;;;;;4.47;2.90;;;17.50;41.80;;;;;;5071769;28;20528;-87
2021/05/05 10:43:57;;;;;;;6.30;3.70;;;17.90;41.90;;;;;;5064998;28;20448;-85
2021/05/05 10:46:29;;;;;;;4.13;2.10;;;17.30;42.10;;;;;;5058401;28;20461;-86
2021/05/05 10:49:06;;;;;;;4.67;2.00;;;16.30;43.40;;;;;;5059223;28;20444;-85
2021/05/05 10:51:59;;;;;;;2.80;1.60;;;15.60;44.60;;;;;;5072901;28;20447;-83
2021/05/05 10:54:51;;;;;;;2.50;0.73;;;15.00;49.70;;;;;;5079327;28;20445;-84
2021/05/05 10:57:32;;;;;;;1.80;0.70;;;13.40;58.80;;;;;;5078673;28;20486;-84
2021/05/05 11:00:13;;;;;;;2.17;0.60;;;12.30;68.20;;;;;;5077579;28;20700;-85
2021/05/05 11:02:47;;;;;;;3.73;0.80;;;11.30;75.90;;;;;;5073413;28;20456;-85
2021/05/05 11:05:17;;;;;;;2.20;0.90;;;10.40;85.70;;;;;;5067965;28;20451;-86
2021/05/05 11:07:52;;;;;;;3.33;1.20;;;9.60;91.40;;;;;;5076977;28;20461;-86
2021/05/05 11:11:02;;;;;;;2.70;1.43;;;9.00;96.30;;;;;;5078335;28;20456;-86
2021/05/05 11:13:41;;;;;;;2.33;1.43;;;8.50;99.90;;;;;;5065183;28;20508;-85
2021/05/05 11:16:09;;;;;;;3.13;1.20;;;8.50;99.90;;;;;;5071824;28;20505;-87
2021/05/05 11:18:48;;;;;;;4.77;1.33;;;8.60;99.90;;;;;;5051478;28;20437;-86
2021/05/05 11:21:40;;;;;;;1.10;0.93;;;8.70;99.90;;;;;;5054892;28;20527;-86
2021/05/05 11:24:30;;;;;;;1.40;0.90;;;8.70;99.90;;;;;;5059863;28;20452;-87
2021/05/05 11:26:57;;;;;;;1.80;1.27;;;8.50;99.90;;;;;;5070740;28;20492;-87
2021/05/05 11:29:49;;;;;;;2.23;1.10;;;8.90;99.90;;;;;;5076634;28;20452;-85
2021/05/05 11:32:25;;;;;;;1.10;0.90;;;10.20;99.90;;;;;;5060207;28;20443;-86
2021/05/05 11:34:52;;;;;;;1.97;0.93;;;12.30;97.70;;;;;;5056903;28;20835;-87
2021/05/05 11:37:21;;;;;;;2.67;1.20;;;14.40;87.50;;;;;;5057254;28;20468;-86
2021/05/05 11:39:49;;;;;;;1.57;1.17;;;16.10;79.40;;;;;;5058069;28;20506;-86
2021/05/05 11:42:18;;;;;;;1.50;0.90;;;17.40;73.50;;;;;;5057104;28;20444;-86
2021/05/05 11:44:48;;;;;;;1.73;0.90;;;18.10;65.90;;;;;;5072637;28;20445;-86
2021/05/05 11:47:17;;;;;;;1.87;1.03;;;17.20;67.90;;;;;;5065377;28;20503;-86
2021/05/05 11:49:45;;;;;;;2.27;1.20;;;16.20;68.40;;;;;;5060589;28;20434;-86
2021/05/05 11:52:23;;;;;;;1.63;1.03;;;16.80;70.70;;;;;;5056661;28;20465;-86
2021/05/05 11:54:51;;;;;;;8.23;3.40;;;17.90;68.10;;;;;;5055302;28;20687;-86
2021/05/05 11:57:18;;;;;;;2.33;1.43;;;19.00;60.30;;;;;;5054828;28;20937;-86
2021/05/05 11:59:45;;;;;;;2.80;1.70;;;19.40;60.70;;;;;;5054196;28;20545;-86
2021/05/05 12:02:12;;;;;;;1.23;1.10;;;19.20;56.70;;;;;;5054070;28;20452;-86
2021/05/05 12:04:40;;;;;;;2.33;1.17;;;16.10;57.90;;;;;;5057559;28;20491;-85
2021/05/05 12:07:07;;;;;;;2.03;1.37;;;14.50;64.40;;;;;;5057395;28;20452;-85
2021/05/05 12:09:35;;;;;;;2.87;2.27;;;14.50;69.80;;;;;;5060089;28;20584;-86
2021/05/05 12:12:17;;;;;;;1.37;1.00;;;14.50;67.80;;;;;;5054245;28;20437;-87
2021/05/05 12:14:46;;;;;;;2.23;1.30;;;15.40;63.60;;;;;;5059182;28;20485;-84
2021/05/05 12:17:27;;;;;;;4.30;1.30;;;16.50;63.90;;;;;;5077083;22;20531;-89
2021/05/05 12:19:56;;;;;;;3.53;1.73;;;17.30;62.90;;;;;;5070382;28;20693;-89
2021/05/05 12:22:23;;;;;;;1.67;1.10;;;18.90;57.70;;;;;;5076573;28;20445;-88
2021/05/05 12:25:14;;;;;;;1.70;1.07;;;18.00;55.80;;;;;;5072150;28;20512;-87
2021/05/05 12:28:01;;;;;;;2.10;1.40;;;16.30;57.40;;;;;;5060482;28;20460;-88
2021/05/05 12:30:43;;;;;;;1.90;1.40;;;15.00;61.30;;;;;;5046914;28;20472;-88
2021/05/05 12:33:10;;;;;;;2.60;1.20;;;14.10;63.30;;;;;;5049124;28;20445;-87
2021/05/05 12:35:37;;;;;;;5.10;1.70;;;13.60;66.30;;;;;;5037914;28;20457;-87
2021/05/05 12:38:10;;;;;;;2.90;1.37;;;13.70;67.70;;;;;;5037249;28;20847;-87
2021/05/05 12:40:37;;;;;;;3.47;1.60;;;13.90;69.40;;;;;;5037206;28;20538;-87
2021/05/05 12:43:22;;;;;;;2.97;1.53;;;14.20;68.30;;;;;;5042410;28;20446;-87
2021/05/05 12:45:51;;;;;;;1.50;1.17;;;14.10;64.50;;;;;;5035390;28;20444;-87
2021/05/05 12:48:22;;;;;;;3.30;1.37;;;14.10;66.70;;;;;;5034575;28;20465;-87
2021/05/05 12:50:49;;;;;;;1.77;0.90;;;14.00;65.80;;;;;;5035531;28;20476;-87
2021/05/05 12:53:16;;;;;;;2.00;1.17;;;13.80;64.80;;;;;;5035827;28;20440;-87
2021/05/05 12:55:44;;;;;;;3.20;1.33;;;14.20;62.10;;;;;;5041601;28;20448;-87
2021/05/05 12:58:13;;;;;;;3.10;1.73;;;14.20;59.90;;;;;;5040220;28;20477;-87
2021/05/05 13:00:43;;;;;;;2.50;1.73;;;14.60;58.80;;;;;;5045536;28;20524;-87
2021/05/05 13:03:11;;;;;;;2.70;1.50;;;17.30;57.10;;;;;;5059071;28;20429;-89
2021/05/05 13:05:57;;;;;;;2.60;1.50;;;18.90;52.70;;;;;;5048274;28;20472;-87
2021/05/05 13:08:33;;;;;;;3.83;2.00;;;18.90;50.30;;;;;;5057684;28;20567;-87
2021/05/05 13:11:02;;;;;;;6.37;1.30;;;18.70;51.10;;;;;;5043087;28;20472;-88
2021/05/05 13:13:47;;;;;;;1.23;0.97;;;18.40;52.00;;;;;;5038999;28;20464;-87
2021/05/05 13:16:28;;;;;;;1.50;1.23;;;18.90;51.70;;;;;;5038560;28;20452;-87
2021/05/05 13:19:16;;;;;;;2.20;1.53;;;18.90;49.10;;;;;;5038816;28;20452;-86
2021/05/05 13:30:21;;;;;;;2.67;1.80;;;19.80;48.30;;;;;;5041444;28;20437;-87
2021/05/05 13:32:53;;;;;;;2.53;1.40;;;20.40;48.70;;;;;;5041271;28;20445;-87
2021/05/05 13:35:28;;;;;;;3.80;1.03;;;19.10;48.60;;;;;;5043974;28;20433;-87